X32258 / D-ATUO 7700 Squawk Report (24th of April, 2019)

Aircraft B738 Reg No. D-ATUO Age 4 years old
Model 737 Jet engines 2 First flight 13-02-15
Registered 10-03-15 Rollout N/A Delivered 24-02-15
Construction No. 41661 Line No. 5292 Series 8K5
ADSHEX 3C0CA7 Airline name TUIfly Owner TUI AG
Airfield based Hannover~Lower Saxony~D First tracked 2017-07-13 07:44:00

Flight history for D-ATUO

Time Lat Lon Altitude Heading Speed Vertical Rate
2019-04-24 12:06:10 GMT 49.017975 2.522841 0 87 9 0
2019-04-24 12:05:40 GMT 49.018261 2.521345 0 165 10 0
2019-04-24 12:04:27 GMT 49.020950 2.526222 0 244 22 0
2019-04-24 12:04:20 GMT 49.021217 2.527127 0 250 28 0
2019-04-24 12:03:53 GMT 49.021843 2.535923 0 264 65 0
2019-04-24 12:03:30 GMT 49.022720 2.552876 2,525 266 157 -960
2019-04-24 12:03:24 GMT 49.023102 2.559462 750 266 160 -704
2019-04-24 12:03:15 GMT 49.023605 2.568618 900 265 158 -896
2019-04-24 12:03:05 GMT 49.024246 2.580449 1,050 266 159 -768
2019-04-24 12:02:58 GMT 49.024673 2.589521 1,125 266 157 -896
2019-04-24 12:02:54 GMT 49.024815 2.592412 1,200 266 156 -1024
2019-04-24 12:02:48 GMT 49.025116 2.598689 1,275 266 157 -896
2019-04-24 12:02:43 GMT 49.025463 2.604627 1,375 265 156 -768
2019-04-24 12:02:38 GMT 49.025745 2.609542 1,425 265 156 -640
2019-04-24 12:02:32 GMT 49.026115 2.616192 1,500 266 156 -704
2019-04-24 12:02:29 GMT 49.026398 2.621251 1,550 265 155 -896
2019-04-24 12:02:22 GMT 49.026814 2.627901 1,650 266 155 -896
2019-04-24 12:02:18 GMT 49.027039 2.632986 1,725 266 156 -704
2019-04-24 12:02:13 GMT 49.027283 2.638020 1,850 266 157 -896
2019-04-24 12:02:06 GMT 49.027607 2.644669 1,850 266 156 -768
2019-04-24 12:02:00 GMT 49.027954 2.651367 1,950 265 157 -896
2019-04-24 12:01:56 GMT 49.028320 2.657212 2,025 266 157 -832
2019-04-24 12:01:52 GMT 49.028538 2.661004 2,075 266 157 -832
2019-04-24 12:01:43 GMT 49.029003 2.670906 2,200 265 159 -896
2019-04-24 12:01:38 GMT 49.029236 2.675605 2,250 265 160 -896
2019-04-24 12:01:32 GMT 49.029694 2.682706 2,350 266 159 -832
2019-04-24 12:01:29 GMT 49.029877 2.686439 2,400 265 158 -832
2019-04-24 12:01:20 GMT 49.030445 2.696204 2,525 266 164 -704
2019-04-24 12:01:14 GMT 49.030838 2.703271 2,550 266 166 -832
2019-04-24 12:01:10 GMT 49.031113 2.708623 2,675 266 168 -960
2019-04-24 12:01:07 GMT 49.031204 2.710947 2,725 266 169 -832
2019-04-24 12:01:03 GMT 49.031525 2.717496 2,800 266 169 -960
2019-04-24 12:00:56 GMT 49.031937 2.725032 2,900 266 174 -768
2019-04-24 12:00:51 GMT 49.032307 2.732054 2,975 266 179 -1024
2019-04-24 12:00:48 GMT 49.032402 2.733789 3,000 266 177 -896
2019-04-24 12:00:45 GMT 49.033035 2.745948 3,075 268 191 -1088
2019-04-24 12:00:40 GMT 49.033035 2.745948 3,150 267 184 -1024
2019-04-24 12:00:36 GMT 49.033192 2.750196 3,225 268 186 -896
2019-04-24 12:00:32 GMT 49.033401 2.756442 3,300 268 191 -1088
2019-04-24 12:00:28 GMT 49.033539 2.761794 3,375 268 193 -1088
2019-04-24 12:00:24 GMT 49.033630 2.765315 3,400 270 200 -1024
2019-04-24 12:00:18 GMT 49.033752 2.773759 3,525 269 202 -1024
2019-04-24 12:00:15 GMT 49.033798 2.778168 3,525 269 202 -832
2019-04-24 12:00:11 GMT 49.034088 2.786020 3,650 256 206 -960
2019-04-24 12:00:07 GMT 49.034542 2.790889 3,700 258 206 -896
2019-04-24 12:00:03 GMT 49.035416 2.796373 3,825 252 205 -1216
2019-04-24 11:59:55 GMT 49.037659 2.805739 3,975 249 204 -1088
2019-04-24 11:59:50 GMT 49.040222 2.815680 4,075 250 205 -1024
2019-04-24 11:59:46 GMT 49.040733 2.817849 4,100 250 206 -1152
2019-04-24 11:59:43 GMT 49.041992 2.822980 4,125 250 207 -1088
2019-04-24 11:59:39 GMT 49.043289 2.828346 4,225 249 211 -832
2019-04-24 11:59:36 GMT 49.044506 2.833099 4,275 249 211 -768
2019-04-24 11:59:33 GMT 49.047775 2.845882 4,425 249 212 -832
2019-04-24 11:59:26 GMT 49.047775 2.845882 4,400 257 219 -256
2019-04-24 11:59:22 GMT 49.049023 2.851819 4,400 261 222 -128
2019-04-24 11:59:14 GMT 49.049515 2.865530 4,375 287 240 192
2019-04-24 11:59:08 GMT 49.047638 2.875953 4,375 287 240 192
2019-04-24 11:59:03 GMT 49.045486 2.882221 4,375 316 263 -448
2019-04-24 11:58:58 GMT 49.041897 2.889043 4,375 316 263 -448
2019-04-24 11:58:51 GMT 49.034168 2.898078 4,375 332 276 -576
2019-04-24 11:58:41 GMT 49.022369 2.905109 4,400 352 288 -576
2019-04-24 11:58:34 GMT 49.013550 2.906823 4,400 0 289 -576
2019-04-24 11:58:30 GMT 49.009033 2.906823 4,375 6 290 -576
2019-04-24 11:58:26 GMT 49.003281 2.905743 4,375 12 293 -512
2019-04-24 11:58:22 GMT 48.997581 2.903643 4,375 17 296 -384
2019-04-24 11:58:19 GMT 48.994217 2.902010 4,375 19 302 -128
2019-04-24 11:58:15 GMT 48.988598 2.898945 4,375 19 303 -64
2019-04-24 11:58:12 GMT 48.984406 2.896632 4,400 19 306 -64
2019-04-24 11:58:08 GMT 48.978928 2.893700 4,375 19 308 -128
2019-04-24 11:58:02 GMT 48.965744 2.886587 4,400 19 314 -512
2019-04-24 11:57:59 GMT 48.965744 2.886587 4,425 20 316 -768
2019-04-24 11:57:54 GMT 48.959686 2.883188 4,475 21 317 -1536
2019-04-24 11:57:51 GMT 48.956150 2.880948 4,550 24 318 -1472
2019-04-24 11:57:48 GMT 48.952148 2.878207 4,650 32 321 -640
2019-04-24 11:57:43 GMT 48.945648 2.872361 4,650 35 322 -704
2019-04-24 11:57:40 GMT 48.940521 2.866516 4,675 44 325 -832
2019-04-24 11:57:37 GMT 48.938923 2.864396 4,700 45 326 -832
2019-04-24 11:57:34 GMT 48.935108 2.858614 4,725 48 326 -768
2019-04-24 11:57:30 GMT 48.931709 2.852398 4,750 54 327 -832
2019-04-24 11:57:26 GMT 48.928574 2.845389 4,775 62 327 -768
2019-04-24 11:57:22 GMT 48.922119 2.823053 4,975 82 325 -1408
2019-04-24 11:57:16 GMT 48.922119 2.823053 4,925 77 326 -1088
2019-04-24 11:57:13 GMT 48.921158 2.816585 5,000 84 324 -1408
2019-04-24 11:57:10 GMT 48.920536 2.810693 5,075 84 324 -1408
2019-04-24 11:57:06 GMT 48.919979 2.799562 5,200 88 324 -1472
2019-04-24 11:57:03 GMT 48.919838 2.793418 5,275 88 325 -1664
2019-04-24 11:57:00 GMT 48.919785 2.786584 5,350 88 325 -1664
2019-04-24 11:56:54 GMT 48.919651 2.773759 5,500 89 327 -1408
2019-04-24 11:56:50 GMT 48.919556 2.763695 5,625 89 328 -1536
2019-04-24 11:56:44 GMT 48.919327 2.740596 5,900 89 331 -2048
2019-04-24 11:56:40 GMT 48.919327 2.740596 5,875 89 331 -1728
2019-04-24 11:56:33 GMT 48.919140 2.725983 6,075 89 331 -1984
2019-04-24 11:56:28 GMT 48.919048 2.714563 6,225 89 330 -2240
2019-04-24 11:56:23 GMT 48.918861 2.701119 6,375 89 329 -2688
2019-04-24 11:56:19 GMT 48.918823 2.692848 6,625 89 327 -2752
2019-04-24 11:56:12 GMT 48.918640 2.676579 6,850 88 326 -1728
2019-04-24 11:56:09 GMT 48.918579 2.669678 6,950 89 328 -256
2019-04-24 11:56:03 GMT 48.918411 2.653550 6,975 88 329 0
2019-04-24 11:55:59 GMT 48.918320 2.646367 6,975 88 330 0
2019-04-24 11:55:56 GMT 48.918068 2.627395 6,975 88 330 0
2019-04-24 11:55:52 GMT 48.918068 2.627395 6,975 88 331 -192
2019-04-24 11:55:49 GMT 48.918022 2.622769 6,975 89 331 -384
2019-04-24 11:55:41 GMT 48.917835 2.602025 7,075 89 334 -1024
2019-04-24 11:55:38 GMT 48.917770 2.598267 7,100 89 334 -896
2019-04-24 11:55:33 GMT 48.917648 2.585401 7,200 89 336 -832
2019-04-24 11:55:28 GMT 48.917542 2.574322 7,250 89 336 -832
2019-04-24 11:55:23 GMT 48.917450 2.560660 7,350 89 335 -768
2019-04-24 11:55:19 GMT 48.917416 2.552659 7,425 89 335 -640
2019-04-24 11:55:16 GMT 48.917324 2.543046 7,450 89 336 -512
2019-04-24 11:55:12 GMT 48.917187 2.525844 7,500 89 335 -576
2019-04-24 11:55:07 GMT 48.917187 2.525844 7,500 88 335 -448
2019-04-24 11:55:02 GMT 48.916946 2.502136 7,575 89 335 -1536
2019-04-24 11:54:57 GMT 48.916946 2.502136 7,575 89 335 -1792
2019-04-24 11:54:50 GMT 48.916813 2.484500 7,950 88 335 -2816
2019-04-24 11:54:47 GMT 48.916763 2.478614 8,075 88 336 -2752
2019-04-24 11:54:44 GMT 48.916672 2.470406 8,150 87 336 -2944
2019-04-24 11:54:41 GMT 48.916489 2.462839 8,300 85 337 -2816
2019-04-24 11:54:38 GMT 48.916019 2.453854 8,525 85 339 -2368
2019-04-24 11:54:35 GMT 48.915710 2.448191 8,575 85 339 -2368
2019-04-24 11:54:30 GMT 48.914532 2.427328 8,900 84 340 -2816
2019-04-24 11:54:26 GMT 48.914532 2.427328 9,000 85 340 -2880
2019-04-24 11:54:23 GMT 48.914204 2.421618 9,050 84 340 -2816
2019-04-24 11:54:19 GMT 48.913651 2.412344 9,175 84 340 -2496
2019-04-24 11:54:16 GMT 48.913227 2.404705 9,275 84 340 -2432
2019-04-24 11:54:13 GMT 48.912575 2.393068 9,500 84 343 -1984
2019-04-24 11:54:10 GMT 48.912392 2.390394 9,650 84 344 -2176
2019-04-24 11:54:07 GMT 48.911957 2.382766 9,700 84 345 -2240
2019-04-24 11:54:04 GMT 48.911507 2.374782 9,775 84 345 -2240
2019-04-24 11:54:00 GMT 48.910854 2.363651 9,950 85 348 -1664
2019-04-24 11:53:57 GMT 48.910061 2.350062 10,050 85 349 -1856
2019-04-24 11:53:54 GMT 48.910061 2.350062 10,200 85 350 -1856
2019-04-24 11:53:48 GMT 48.909256 2.336074 10,300 85 350 -1728
2019-04-24 11:53:45 GMT 48.908943 2.329969 10,375 85 351 -1728
2019-04-24 11:53:42 GMT 48.908478 2.321874 10,450 85 352 -1856
2019-04-24 11:53:38 GMT 48.907791 2.309594 10,625 85 352 -1984
2019-04-24 11:53:34 GMT 48.907455 2.303660 10,700 85 352 -2048
2019-04-24 11:53:31 GMT 48.906990 2.295058 10,825 85 352 -1984
2019-04-24 11:53:27 GMT 48.906429 2.285156 10,950 85 353 -2112
2019-04-24 11:53:24 GMT 48.905640 2.270649 11,500 85 351 -2496
2019-04-24 11:53:21 GMT 48.905640 2.270649 11,175 85 353 -2240
2019-04-24 11:53:17 GMT 48.904724 2.253606 11,675 85 352 -2368
2019-04-24 11:53:14 GMT 48.904724 2.253606 11,500 85 351 -2496
2019-04-24 11:53:09 GMT 48.904083 2.241563 11,625 85 352 -2368
2019-04-24 11:53:06 GMT 48.903637 2.233188 11,975 85 351 -2496
2019-04-24 11:53:03 GMT 48.903267 2.226105 11,925 85 351 -2496
2019-04-24 11:53:00 GMT 48.902706 2.216275 12,050 85 350 -2560
2019-04-24 11:52:56 GMT 48.902287 2.208469 12,125 85 350 -2560
2019-04-24 11:52:52 GMT 48.901634 2.197699 12,300 84 348 -2752
2019-04-24 11:52:49 GMT 48.901218 2.190182 12,550 84 346 -2816
2019-04-24 11:52:46 GMT 48.900284 2.174166 12,825 84 345 -1920
2019-04-24 11:52:37 GMT 48.899460 2.161349 12,975 84 348 -192
2019-04-24 11:52:33 GMT 48.898659 2.148189 13,000 84 349 192
2019-04-24 11:52:29 GMT 48.898361 2.142827 12,975 84 349 0
2019-04-24 11:52:25 GMT 48.897675 2.132122 12,975 84 349 -192
2019-04-24 11:52:22 GMT 48.897121 2.122385 13,000 84 349 -128
2019-04-24 11:52:18 GMT 48.896656 2.114796 13,000 84 349 192
2019-04-24 11:52:15 GMT 48.896145 2.106050 13,000 85 348 192
2019-04-24 11:52:12 GMT 48.895935 2.101628 12,975 56 379 128
2019-04-24 11:52:09 GMT 48.895538 2.095353 12,975 85 348 64
2019-04-24 11:52:04 GMT 48.894333 2.073388 13,000 85 349 64
2019-04-24 11:51:58 GMT 48.894012 2.067331 13,000 85 349 64
2019-04-24 11:51:53 GMT 48.893349 2.054660 13,000 85 349 0
2019-04-24 11:51:49 GMT 48.892933 2.046131 13,000 85 348 -128
2019-04-24 11:51:46 GMT 48.892548 2.038034 13,000 85 348 -64
2019-04-24 11:51:43 GMT 48.892139 2.029796 13,000 86 348 192
2019-04-24 11:51:39 GMT 48.891815 2.022470 13,000 64 371 128
2019-04-24 11:51:36 GMT 48.891449 2.013245 13,000 86 348 128
2019-04-24 11:51:33 GMT 48.891163 2.006595 12,975 84 350 -128
2019-04-24 11:51:29 GMT 48.890511 1.997343 12,975 78 356 -192
2019-04-24 11:51:23 GMT 48.887718 1.979274 13,000 67 369 64
2019-04-24 11:51:15 GMT 48.880688 1.958024 12,975 54 380 256
2019-04-24 11:51:12 GMT 48.878769 1.953876 13,000 51 383 320
2019-04-24 11:51:06 GMT 48.872726 1.943279 13,000 42 388 64
2019-04-24 11:51:03 GMT 48.869568 1.938453 13,000 42 388 64
2019-04-24 11:51:00 GMT 48.866161 1.933594 13,000 42 388 64
2019-04-24 11:50:55 GMT 48.859039 1.923593 13,000 42 387 -64
2019-04-24 11:50:52 GMT 48.849216 1.909814 13,000 42 385 -192
2019-04-24 11:50:48 GMT 48.849216 1.909814 13,000 42 384 -320
2019-04-24 11:50:44 GMT 48.845306 1.904297 13,025 42 382 -448
2019-04-24 11:50:41 GMT 48.840885 1.898177 13,050 42 378 -640
2019-04-24 11:50:38 GMT 48.837387 1.893311 13,200 42 370 -1216
2019-04-24 11:50:35 GMT 48.832123 1.885986 13,150 42 371 -1152
2019-04-24 11:50:32 GMT 48.828316 1.880686 13,225 42 367 -1408
2019-04-24 11:50:29 GMT 48.824593 1.875410 13,275 42 365 -1536
2019-04-24 11:50:24 GMT 48.819626 1.868450 13,375 42 358 -2048
2019-04-24 11:50:21 GMT 48.815098 1.862183 13,525 43 353 -2560
2019-04-24 11:50:18 GMT 48.805645 1.848739 13,950 43 343 -3328
2019-04-24 11:50:13 GMT 48.805645 1.848739 14,475 43 334 -3200
2019-04-24 11:50:10 GMT 48.802666 1.844474 14,175 43 338 -3392
2019-04-24 11:50:06 GMT 48.798664 1.838764 14,250 43 336 -3328
2019-04-24 11:50:03 GMT 48.794449 1.832745 14,450 43 333 -3136
2019-04-24 11:50:00 GMT 48.790741 1.827463 14,600 43 330 -2560
2019-04-24 11:49:55 GMT 48.784973 1.819294 14,850 43 329 -1536
2019-04-24 11:49:52 GMT 48.782742 1.816141 14,900 43 329 -1024
2019-04-24 11:49:49 GMT 48.778748 1.810491 14,950 42 331 -128
2019-04-24 11:49:45 GMT 48.773804 1.803518 14,975 43 332 64
2019-04-24 11:49:42 GMT 48.771011 1.799504 14,975 43 332 0
2019-04-24 11:49:39 GMT 48.767532 1.794645 14,975 43 332 0
2019-04-24 11:49:34 GMT 48.762676 1.787808 14,975 43 333 0
2019-04-24 11:49:31 GMT 48.759186 1.782821 14,975 43 333 0
2019-04-24 11:49:28 GMT 48.756042 1.778377 14,975 43 333 0
2019-04-24 11:49:23 GMT 48.746105 1.764318 14,975 42 336 0
2019-04-24 11:49:20 GMT 48.746105 1.764318 14,975 42 337 0
2019-04-24 11:49:17 GMT 48.742661 1.759547 14,975 42 338 0
2019-04-24 11:49:13 GMT 48.735397 1.749432 14,950 42 341 0
2019-04-24 11:49:10 GMT 48.729347 1.740972 14,975 42 349 -128
2019-04-24 11:49:07 GMT 48.729347 1.740972 14,950 42 344 -64
2019-04-24 11:49:03 GMT 48.725693 1.735840 14,950 42 349 -128
2019-04-24 11:49:00 GMT 48.716858 1.723445 14,975 42 355 -64
2019-04-24 11:48:56 GMT 48.716858 1.723445 14,975 42 358 -64
2019-04-24 11:48:53 GMT 48.715054 1.720878 14,975 42 358 -64
2019-04-24 11:48:50 GMT 48.711426 1.715819 14,975 42 360 -64
2019-04-24 11:48:46 GMT 48.705002 1.706825 14,950 43 367 -128
2019-04-24 11:48:43 GMT 48.702160 1.702809 14,975 43 369 -128
2019-04-24 11:48:40 GMT 48.698547 1.697669 14,975 42 373 -128
2019-04-24 11:48:36 GMT 48.692963 1.689923 15,000 42 379 -128
2019-04-24 11:48:33 GMT 48.689758 1.685415 14,975 42 382 -192
2019-04-24 11:48:30 GMT 48.684677 1.678373 14,975 42 385 -256
2019-04-24 11:48:25 GMT 48.674515 1.664358 15,000 42 390 -192
2019-04-24 11:48:18 GMT 48.668015 1.655485 15,025 41 403 64
2019-04-24 11:48:15 GMT 48.665039 1.651400 15,025 41 402 64
2019-04-24 11:48:12 GMT 48.662247 1.647668 15,000 41 413 -1536
2019-04-24 11:48:08 GMT 48.656353 1.639782 15,025 41 409 -960
2019-04-24 11:48:03 GMT 48.647415 1.627737 15,225 41 414 -1664
2019-04-24 11:47:59 GMT 48.642426 1.620976 15,225 42 418 -2176
2019-04-24 11:47:53 GMT 48.633133 1.608159 15,450 42 420 -2688
2019-04-24 11:47:48 GMT 48.627502 1.600412 16,400 45 421 -3264
2019-04-24 11:47:44 GMT 48.621067 1.591427 15,900 44 421 -3520
2019-04-24 11:47:37 GMT 48.610359 1.575598 16,250 45 421 -3328
2019-04-24 11:47:33 GMT 48.606262 1.569310 16,400 45 421 -3264
2019-04-24 11:47:30 GMT 48.602863 1.564034 16,625 46 421 -3584
2019-04-24 11:47:26 GMT 48.594955 1.550692 17,000 52 417 -3904
2019-04-24 11:47:20 GMT 48.590340 1.541338 17,250 55 415 -3584
2019-04-24 11:47:17 GMT 48.586430 1.532737 17,450 56 416 -3456
2019-04-24 11:47:14 GMT 48.583878 1.526959 17,575 56 416 -3392
2019-04-24 11:47:09 GMT 48.578476 1.514564 17,875 56 416 -3264
2019-04-24 11:47:05 GMT 48.572884 1.501658 18,150 56 417 -3520
2019-04-24 11:46:59 GMT 48.568039 1.490408 18,425 56 417 -3648
2019-04-24 11:46:55 GMT 48.563526 1.479974 18,675 56 418 -3584
2019-04-24 11:46:52 GMT 48.559982 1.471886 18,925 56 418 -3456
2019-04-24 11:46:49 GMT 48.556915 1.464844 19,075 56 418 -3328
2019-04-24 11:46:45 GMT 48.549500 1.447730 19,475 56 420 -3456
2019-04-24 11:46:42 GMT 48.546936 1.441885 20,150 56 419 -3712
2019-04-24 11:46:39 GMT 48.546936 1.441885 19,975 56 419 -3648
2019-04-24 11:46:36 GMT 48.543640 1.434279 19,825 56 419 -3648
2019-04-24 11:46:32 GMT 48.539227 1.423958 19,950 56 419 -3456
2019-04-24 11:46:29 GMT 48.534943 1.414201 20,475 56 425 -3136
2019-04-24 11:46:23 GMT 48.526062 1.393503 20,775 56 422 -3264
2019-04-24 11:46:20 GMT 48.526062 1.393503 20,775 56 422 -3328
2019-04-24 11:46:16 GMT 48.521725 1.383410 21,000 56 425 -3136
2019-04-24 11:46:12 GMT 48.518276 1.375532 21,175 56 423 -3264
2019-04-24 11:46:08 GMT 48.513111 1.363678 21,400 56 424 -3136
2019-04-24 11:46:03 GMT 48.507942 1.352113 22,400 55 429 -3136
2019-04-24 11:45:59 GMT 48.502487 1.340050 21,950 55 429 -3136
2019-04-24 11:45:53 GMT 48.495758 1.325261 22,275 55 432 -2816
2019-04-24 11:45:49 GMT 48.491417 1.315830 22,450 55 434 -2752
2019-04-24 11:45:46 GMT 48.487564 1.307443 22,600 55 434 -2688
2019-04-24 11:45:42 GMT 48.484451 1.300683 22,975 55 437 -2944
2019-04-24 11:45:38 GMT 48.478477 1.287641 22,975 55 439 -2816
2019-04-24 11:45:35 GMT 48.476894 1.284172 23,250 55 445 -2304
2019-04-24 11:45:32 GMT 48.472008 1.273547 23,225 55 443 -2112
2019-04-24 11:45:27 GMT 48.463673 1.255188 23,825 55 450 -3072
2019-04-24 11:45:24 GMT 48.463673 1.255188 23,500 55 447 -3008
2019-04-24 11:45:17 GMT 48.455978 1.238216 23,950 12 510 -3200
2019-04-24 11:45:13 GMT 48.451847 1.229168 24,050 55 452 -2176
2019-04-24 11:45:10 GMT 48.446682 1.217748 24,175 55 455 -2112
2019-04-24 11:45:06 GMT 48.441833 1.207088 24,425 55 455 -2112
2019-04-24 11:45:03 GMT 48.437416 1.197365 24,425 55 457 -2240
2019-04-24 11:45:00 GMT 48.435150 1.192439 24,500 55 459 -2176
2019-04-24 11:44:57 GMT 48.431599 1.184572 25,275 12 510 -3200
2019-04-24 11:44:53 GMT 48.421875 1.163213 25,075 51 473 -2816
2019-04-24 11:44:50 GMT 48.421875 1.163213 24,950 56 460 -2496
2019-04-24 11:44:45 GMT 48.416424 1.150962 25,125 56 461 -2176
2019-04-24 11:44:41 GMT 48.412582 1.142156 26,325 0 514 -3328
2019-04-24 11:44:33 GMT 48.399033 1.112859 25,600 49 477 -3136
2019-04-24 11:44:30 GMT 48.399033 1.112859 25,700 49 477 -3136
2019-04-24 11:44:26 GMT 48.393379 1.103114 25,875 43 484 -3264
2019-04-24 11:44:23 GMT 48.387562 1.094007 26,175 40 487 -3200
2019-04-24 11:44:20 GMT 48.382462 1.086942 26,325 0 514 -3328
2019-04-24 11:44:13 GMT 48.371078 1.073046 26,725 34 493 -3136
2019-04-24 11:44:08 GMT 48.361771 1.063772 27,800 30 497 -3264
2019-04-24 11:44:04 GMT 48.348404 1.052927 28,000 22 504 -3328
2019-04-24 11:44:01 GMT 48.348404 1.052927 27,550 23 503 -3328
2019-04-24 11:43:58 GMT 48.341614 1.048327 27,625 22 504 -3328
2019-04-24 11:43:55 GMT 48.327740 1.040955 28,475 12 510 -3200
2019-04-24 11:43:52 GMT 48.327740 1.040955 28,150 15 508 -3328
2019-04-24 11:43:49 GMT 48.319153 1.037574 28,400 11 510 -3200
2019-04-24 11:43:45 GMT 48.305443 1.033799 29,800 341 510 -3008
2019-04-24 11:43:38 GMT 48.294361 1.032353 29,150 3 513 -3392
2019-04-24 11:43:35 GMT 48.288208 1.032011 29,350 359 514 -3264
2019-04-24 11:43:32 GMT 48.281326 1.032137 29,550 357 514 -3264
2019-04-24 11:43:29 GMT 48.273743 1.032856 30,025 355 513 -3200
2019-04-24 11:43:25 GMT 48.265034 1.034377 30,100 349 513 -3200
2019-04-24 11:43:22 GMT 48.258224 1.036095 30,225 347 512 -3200
2019-04-24 11:43:17 GMT 48.247902 1.039870 30,400 342 510 -3072
2019-04-24 11:43:14 GMT 48.239990 1.043484 30,850 337 509 -2816
2019-04-24 11:43:10 GMT 48.232494 1.047749 30,975 337 509 -2816
2019-04-24 11:43:07 GMT 48.223251 1.053913 31,250 333 507 -2752
2019-04-24 11:43:04 GMT 48.217224 1.058591 31,425 330 505 -2560
2019-04-24 11:43:00 GMT 48.211174 1.063795 31,575 327 504 -2496
2019-04-24 11:42:57 GMT 48.205124 1.069688 31,750 323 502 -2496
2019-04-24 11:42:53 GMT 48.197800 1.077717 32,125 318 500 -2176
2019-04-24 11:42:48 GMT 48.181847 1.099717 32,275 313 498 -2240
2019-04-24 11:42:45 GMT 48.181847 1.099717 32,400 312 497 -2304
2019-04-24 11:42:36 GMT 48.166435 1.130219 32,800 303 493 -2432
2019-04-24 11:42:33 GMT 48.166435 1.130219 32,975 300 490 -2432
2019-04-24 11:42:27 GMT 48.160198 1.147085 33,475 295 488 -2368
2019-04-24 11:42:23 GMT 48.155731 1.162508 33,425 288 484 -2496
2019-04-24 11:42:16 GMT 48.149643 1.194420 34,975 281 477 -3072
2019-04-24 11:42:12 GMT 48.149643 1.194420 33,875 280 477 -3136
2019-04-24 11:42:09 GMT 48.148655 1.203496 35,000 237 447 -640
2019-04-24 11:42:06 GMT 48.147720 1.217422 34,225 270 469 -3328
2019-04-24 11:42:01 GMT 48.147583 1.231636 34,475 268 466 -3328
2019-04-24 11:41:54 GMT 48.150101 1.265144 34,925 259 458 -1344
2019-04-24 11:41:51 GMT 48.150101 1.265144 34,875 256 456 -576
2019-04-24 11:41:47 GMT 48.151215 1.272583 34,975 253 455 -384
2019-04-24 11:41:43 GMT 48.153671 1.285538 34,925 251 455 -576
2019-04-24 11:41:40 GMT 48.156464 1.297073 34,950 245 453 -832
2019-04-24 11:41:37 GMT 48.157791 1.301674 34,950 243 451 -832
2019-04-24 11:41:34 GMT 48.161362 1.312514 34,975 242 451 -768
2019-04-24 11:41:31 GMT 48.170208 1.333032 35,000 233 444 -512
2019-04-24 11:41:26 GMT 48.170208 1.333032 35,000 232 443 -448
2019-04-24 11:41:21 GMT 48.176678 1.344886 35,000 229 442 0
2019-04-24 11:41:17 GMT 48.181641 1.353642 35,000 229 442 0
2019-04-24 11:41:14 GMT 48.185120 1.359629 35,000 229 442 -64
2019-04-24 11:41:10 GMT 48.191154 1.369749 35,000 230 442 0
2019-04-24 11:41:07 GMT 48.196793 1.379418 35,000 230 442 0
2019-04-24 11:41:03 GMT 48.202286 1.388925 35,000 230 442 0
2019-04-24 11:41:00 GMT 48.206146 1.395553 35,000 230 442 0
2019-04-24 11:40:55 GMT 48.211533 1.404771 35,000 230 442 -64
2019-04-24 11:40:52 GMT 48.215691 1.411960 35,000 229 441 0
2019-04-24 11:40:49 GMT 48.219589 1.418856 35,000 229 441 0
2019-04-24 11:40:44 GMT 48.225998 1.429702 35,000 229 441 -64
2019-04-24 11:40:40 GMT 48.232040 1.440054 35,000 229 441 -64
2019-04-24 11:40:35 GMT 48.237522 1.449473 35,000 229 441 -64
2019-04-24 11:40:32 GMT 48.241665 1.456628 35,000 229 440 0
2019-04-24 11:40:29 GMT 48.249672 1.470650 35,000 230 440 128
2019-04-24 11:40:21 GMT 48.256897 1.482802 35,000 230 440 -64
2019-04-24 11:40:18 GMT 48.260101 1.488366 34,975 230 440 -64
2019-04-24 11:40:14 GMT 48.266617 1.499634 34,975 230 440 -128
2019-04-24 11:40:08 GMT 48.274612 1.513437 35,000 230 439 0
2019-04-24 11:40:02 GMT 48.283127 1.528156 35,000 230 439 64
2019-04-24 11:39:58 GMT 48.293610 1.546326 35,000 230 439 0
2019-04-24 11:39:51 GMT 48.296410 1.551168 35,000 230 439 0
2019-04-24 11:39:48 GMT 48.300247 1.557805 35,000 230 438 64
2019-04-24 11:39:45 GMT 48.312889 1.579574 35,000 230 438 0
2019-04-24 11:39:39 GMT 48.312889 1.579574 35,000 230 438 0
2019-04-24 11:39:36 GMT 48.317265 1.587091 35,000 230 438 0
2019-04-24 11:39:32 GMT 48.321075 1.594004 35,000 230 438 0
2019-04-24 11:39:28 GMT 48.326622 1.603353 35,000 230 436 0
2019-04-24 11:39:25 GMT 48.330860 1.610726 35,000 230 436 -64
2019-04-24 11:39:22 GMT 48.335888 1.619399 35,000 230 436 -64
2019-04-24 11:39:16 GMT 48.349319 1.642738 35,000 230 436 64
2019-04-24 11:39:12 GMT 48.349319 1.642738 35,000 230 436 -64
2019-04-24 11:39:06 GMT 48.355904 1.654165 35,000 230 436 -128
2019-04-24 11:39:03 GMT 48.361176 1.663302 35,000 230 435 0
2019-04-24 11:39:00 GMT 48.364746 1.669499 35,000 230 435 0
2019-04-24 11:38:57 GMT 48.368149 1.675415 35,000 230 435 0
2019-04-24 11:38:54 GMT 48.373123 1.684077 35,000 230 434 -64
2019-04-24 11:38:51 GMT 48.379459 1.695003 35,000 230 433 -64
2019-04-24 11:38:48 GMT 48.379459 1.695003 35,000 230 433 0
2019-04-24 11:38:45 GMT 48.384567 1.703937 35,000 230 433 0
2019-04-24 11:38:41 GMT 48.388641 1.710980 35,000 230 433 0
2019-04-24 11:38:37 GMT 48.399662 1.730058 35,000 230 433 0
2019-04-24 11:38:34 GMT 48.399662 1.730058 35,000 230 433 -64
2019-04-24 11:38:31 GMT 48.403946 1.737502 35,000 230 433 0
2019-04-24 11:38:28 GMT 48.405807 1.740699 35,000 230 432 64
2019-04-24 11:38:24 GMT 48.412582 1.752531 35,000 230 432 0
2019-04-24 11:38:18 GMT 48.420822 1.766827 35,000 230 432 0
2019-04-24 11:38:14 GMT 48.431412 1.785134 35,000 230 431 0
2019-04-24 11:38:09 GMT 48.431412 1.785134 35,000 230 431 0
2019-04-24 11:38:06 GMT 48.435562 1.792391 34,975 230 431 0
2019-04-24 11:37:59 GMT 48.449009 1.815780 34,975 230 430 -64
2019-04-24 11:37:56 GMT 48.449009 1.815780 34,975 230 431 0
2019-04-24 11:37:51 GMT 48.455109 1.826405 34,975 230 431 -64
2019-04-24 11:37:48 GMT 48.462879 1.839993 35,000 230 430 0
2019-04-24 11:37:45 GMT 48.462879 1.839993 35,000 230 430 0
2019-04-24 11:37:41 GMT 48.475170 1.861532 34,975 230 430 0
2019-04-24 11:37:36 GMT 48.475170 1.861532 35,000 230 430 -64
2019-04-24 11:37:32 GMT 48.479691 1.869507 35,000 230 429 -64
2019-04-24 11:37:28 GMT 48.484818 1.878592 35,000 230 429 0
2019-04-24 11:37:25 GMT 48.487656 1.883592 34,975 230 429 -128
2019-04-24 11:37:22 GMT 48.491280 1.889938 35,000 230 429 64
2019-04-24 11:37:19 GMT 48.496166 1.898539 34,975 230 429 64
2019-04-24 11:37:14 GMT 48.502499 1.909670 34,975 230 429 0
2019-04-24 11:37:10 GMT 48.507523 1.918523 34,975 230 429 -128
2019-04-24 11:37:07 GMT 48.515259 1.932115 34,975 230 429 -128
2019-04-24 11:37:04 GMT 48.515259 1.932115 34,975 230 429 -64
2019-04-24 11:37:01 GMT 48.522747 1.945231 35,000 230 429 0
2019-04-24 11:36:54 GMT 48.529449 1.957012 34,975 230 428 -64
2019-04-24 11:36:51 GMT 48.533203 1.963595 34,975 230 429 0
2019-04-24 11:36:47 GMT 48.538467 1.972891 34,975 230 429 -64
2019-04-24 11:36:42 GMT 48.549934 1.993079 35,000 230 429 -64
2019-04-24 11:36:37 GMT 48.549934 1.993079 35,000 230 429 0
2019-04-24 11:36:32 GMT 48.557663 2.006667 34,975 230 428 -64
2019-04-24 11:36:28 GMT 48.561386 2.013245 34,975 230 428 0
2019-04-24 11:36:23 GMT 48.567669 2.024303 35,000 230 427 0
2019-04-24 11:36:17 GMT 48.577446 2.041506 34,975 230 427 64
2019-04-24 11:36:14 GMT 48.578842 2.044035 34,975 230 428 0
2019-04-24 11:36:11 GMT 48.588135 2.060289 34,975 230 428 0
2019-04-24 11:36:08 GMT 48.588135 2.060289 34,975 230 428 0
2019-04-24 11:36:03 GMT 48.598907 2.079307 34,975 230 427 0
2019-04-24 11:36:00 GMT 48.598907 2.079307 34,975 230 428 0
2019-04-24 11:35:57 GMT 48.602142 2.085008 34,975 230 428 0
2019-04-24 11:35:54 GMT 48.604588 2.089282 34,975 230 427 0
2019-04-24 11:35:51 GMT 48.609707 2.098389 34,975 230 427 0
2019-04-24 11:35:46 GMT 48.614731 2.107192 34,975 230 427 0
2019-04-24 11:35:43 GMT 48.619484 2.115591 34,975 230 428 0
2019-04-24 11:35:40 GMT 48.623337 2.122404 34,975 230 428 0
2019-04-24 11:35:37 GMT 48.626953 2.128742 34,975 230 429 0
2019-04-24 11:35:34 GMT 48.630661 2.135291 34,975 230 429 0
2019-04-24 11:35:31 GMT 48.635170 2.143274 34,975 230 429 0
2019-04-24 11:35:28 GMT 48.641647 2.154588 34,975 230 432 -64
2019-04-24 11:35:25 GMT 48.641647 2.154588 34,975 230 429 0
2019-04-24 11:35:22 GMT 48.646297 2.162789 34,975 230 429 0
2019-04-24 11:35:19 GMT 48.650021 2.169366 34,975 230 432 -64
2019-04-24 11:35:16 GMT 48.656525 2.180716 34,975 230 431 0
2019-04-24 11:35:13 GMT 48.658958 2.185051 34,975 230 431 0
2019-04-24 11:35:10 GMT 48.662888 2.191913 35,000 230 431 -64
2019-04-24 11:35:06 GMT 48.668976 2.202618 35,000 230 431 -64
2019-04-24 11:35:02 GMT 48.671539 2.207196 35,000 230 432 -64
2019-04-24 11:34:58 GMT 48.678680 2.219802 35,000 230 432 -64
2019-04-24 11:34:55 GMT 48.685638 2.232197 35,000 230 431 0
2019-04-24 11:34:52 GMT 48.685638 2.232197 35,000 230 431 0
2019-04-24 11:34:49 GMT 48.689499 2.239115 34,975 230 432 0
2019-04-24 11:34:46 GMT 48.693878 2.246915 34,975 230 432 0
2019-04-24 11:34:42 GMT 48.698135 2.254521 35,000 230 432 -64
2019-04-24 11:34:39 GMT 48.701889 2.261141 35,000 230 432 0
2019-04-24 11:34:35 GMT 48.707062 2.270367 34,975 230 432 0
2019-04-24 11:34:31 GMT 48.712494 2.280024 34,975 230 432 0
2019-04-24 11:34:28 GMT 48.716499 2.287108 34,975 230 432 0
2019-04-24 11:34:25 GMT 48.724091 2.300720 34,975 230 432 0
2019-04-24 11:34:22 GMT 48.724091 2.300720 34,975 230 432 0
2019-04-24 11:34:19 GMT 48.727997 2.307635 34,975 230 432 0
2019-04-24 11:34:16 GMT 48.733025 2.316597 34,975 230 432 0
2019-04-24 11:34:13 GMT 48.735443 2.321003 34,975 230 432 0
2019-04-24 11:34:10 GMT 48.740845 2.330692 34,975 230 432 0
2019-04-24 11:34:07 GMT 48.743965 2.336185 34,975 230 432 -64
2019-04-24 11:34:03 GMT 48.748718 2.344736 35,000 230 432 0
2019-04-24 11:34:00 GMT 48.754253 2.354616 35,000 230 432 -64
2019-04-24 11:33:56 GMT 48.757507 2.360370 35,000 230 432 -64
2019-04-24 11:33:53 GMT 48.761375 2.367265 35,000 230 432 -64
2019-04-24 11:33:49 GMT 48.768173 2.379526 35,000 230 430 0
2019-04-24 11:33:45 GMT 48.771515 2.385512 35,000 230 430 -64
2019-04-24 11:33:41 GMT 48.777157 2.395598 35,000 230 430 -64
2019-04-24 11:33:38 GMT 48.781036 2.402485 35,000 230 430 0
2019-04-24 11:33:34 GMT 48.785019 2.409668 35,000 230 430 64
2019-04-24 11:33:31 GMT 48.790375 2.419316 35,000 230 430 64
2019-04-24 11:33:27 GMT 48.795403 2.428268 35,000 230 430 0
2019-04-24 11:33:24 GMT 48.798477 2.433833 34,975 230 431 -64
2019-04-24 11:33:21 GMT 48.803009 2.441852 34,975 230 430 -64
2019-04-24 11:33:17 GMT 48.809135 2.452842 35,000 230 429 0
2019-04-24 11:33:14 GMT 48.811615 2.457205 35,000 230 429 0
2019-04-24 11:33:11 GMT 48.815598 2.464318 35,000 230 429 -64
2019-04-24 11:33:08 GMT 48.819702 2.471707 35,000 230 429 -64
2019-04-24 11:33:04 GMT 48.829880 2.489812 35,000 230 429 0
2019-04-24 11:33:00 GMT 48.829880 2.489812 35,000 230 430 0
2019-04-24 11:32:56 GMT 48.836151 2.501080 35,000 230 430 0
2019-04-24 11:32:53 GMT 48.838604 2.505461 34,975 230 429 -64
2019-04-24 11:32:49 GMT 48.843723 2.514640 35,000 230 430 0
2019-04-24 11:32:45 GMT 48.849014 2.524038 35,000 230 430 0
2019-04-24 11:32:42 GMT 48.851967 2.529313 35,000 230 427 0
2019-04-24 11:32:39 GMT 48.856434 2.537408 35,000 230 430 0
2019-04-24 11:32:35 GMT 48.861042 2.545648 35,000 230 430 64
2019-04-24 11:32:31 GMT 48.867561 2.557429 35,000 230 430 0
2019-04-24 11:32:27 GMT 48.871628 2.564815 35,000 230 429 -64
2019-04-24 11:32:24 GMT 48.875107 2.571012 35,000 230 428 0
2019-04-24 11:32:21 GMT 48.878815 2.577632 35,000 230 429 0
2019-04-24 11:32:18 GMT 48.883896 2.586858 34,975 230 429 0
2019-04-24 11:32:13 GMT 48.888882 2.595809 34,975 230 429 0
2019-04-24 11:32:09 GMT 48.895164 2.607085 35,000 230 428 -64
2019-04-24 11:32:05 GMT 48.900146 2.616014 35,000 230 428 0
2019-04-24 11:32:02 GMT 48.904861 2.624465 35,000 230 428 0
2019-04-24 11:31:58 GMT 48.909988 2.633620 34,975 230 428 0
2019-04-24 11:31:54 GMT 48.914719 2.642140 34,975 230 428 64
2019-04-24 11:31:51 GMT 48.919235 2.650170 34,975 230 428 0
2019-04-24 11:31:47 GMT 48.923447 2.657705 34,975 230 427 0
2019-04-24 11:31:40 GMT 48.931709 2.672641 35,000 230 427 -64
2019-04-24 11:31:37 GMT 48.941528 2.690312 35,000 230 427 -64
2019-04-24 11:31:33 GMT 48.941528 2.690312 35,000 230 427 0
2019-04-24 11:31:29 GMT 48.945236 2.696932 35,000 230 427 0
2019-04-24 11:31:26 GMT 48.949722 2.704961 35,000 230 427 0
2019-04-24 11:31:22 GMT 48.954803 2.714116 35,000 230 427 0
2019-04-24 11:31:18 GMT 48.963364 2.729469 34,975 230 427 0
2019-04-24 11:31:15 GMT 48.963364 2.729469 34,975 230 427 0
2019-04-24 11:31:12 GMT 48.970734 2.742709 34,975 230 427 0
2019-04-24 11:31:06 GMT 48.975979 2.752147 35,000 230 427 -64
2019-04-24 11:31:02 GMT 48.986298 2.770667 35,000 230 427 -64
2019-04-24 11:30:58 GMT 48.986298 2.770667 35,000 230 426 0
2019-04-24 11:30:55 GMT 48.989960 2.777358 35,000 230 426 0
2019-04-24 11:30:50 GMT 48.994926 2.786263 34,975 230 426 0
2019-04-24 11:30:47 GMT 49.003960 2.802526 34,975 230 426 64
2019-04-24 11:30:44 GMT 49.003960 2.802526 35,000 231 428 0
2019-04-24 11:30:41 GMT 49.007767 2.809401 34,975 230 427 0
2019-04-24 11:30:37 GMT 49.011826 2.816692 34,975 230 427 0
2019-04-24 11:30:33 GMT 49.017273 2.826594 34,975 230 427 -64
2019-04-24 11:30:29 GMT 49.022507 2.836022 34,975 230 427 -64
2019-04-24 11:30:26 GMT 49.025417 2.841267 35,000 231 428 0
2019-04-24 11:30:23 GMT 49.029510 2.848628 35,000 231 428 0
2019-04-24 11:30:18 GMT 49.039902 2.867572 35,000 231 429 0
2019-04-24 11:30:12 GMT 49.045483 2.877767 35,000 231 428 -64
2019-04-24 11:30:09 GMT 49.048645 2.883489 35,000 231 429 0
2019-04-24 11:30:06 GMT 49.052464 2.890488 35,000 231 429 0
2019-04-24 11:30:03 GMT 49.056656 2.898137 35,000 231 429 0
2019-04-24 11:29:58 GMT 49.061371 2.906729 35,000 231 431 0
2019-04-24 11:29:55 GMT 49.065033 2.913419 35,000 231 431 0
2019-04-24 11:29:52 GMT 49.074158 2.930242 34,975 231 431 0
2019-04-24 11:29:49 GMT 49.074158 2.930242 35,000 231 431 -64
2019-04-24 11:29:45 GMT 49.078117 2.937469 35,000 231 430 -64
2019-04-24 11:29:41 GMT 49.084442 2.949125 35,000 231 431 -64
2019-04-24 11:29:36 GMT 49.091431 2.961900 35,000 231 430 0
2019-04-24 11:29:32 GMT 49.095154 2.968694 35,000 231 430 0
2019-04-24 11:29:23 GMT 49.105957 2.988422 35,000 231 430 -64
2019-04-24 11:29:20 GMT 49.109161 2.994197 35,000 231 428 0
2019-04-24 11:29:13 GMT 49.120384 3.014591 35,000 231 429 -64
2019-04-24 11:29:10 GMT 49.122295 3.018132 35,000 231 428 0
2019-04-24 11:29:07 GMT 49.127472 3.027579 35,000 231 429 64
2019-04-24 11:29:03 GMT 49.132050 3.035959 35,000 231 427 -64
2019-04-24 11:29:00 GMT 49.136490 3.044058 35,000 231 428 -64
2019-04-24 11:28:55 GMT 49.141705 3.053549 35,000 231 428 -64
2019-04-24 11:28:52 GMT 49.147617 3.064463 35,000 231 428 -64
2019-04-24 11:28:48 GMT 49.150040 3.068918 35,000 231 426 0
2019-04-24 11:28:44 GMT 49.156219 3.080257 35,000 231 428 0
2019-04-24 11:28:40 GMT 49.161804 3.090468 35,000 231 428 0
2019-04-24 11:28:36 GMT 49.165073 3.096482 34,975 231 428 -64
2019-04-24 11:28:33 GMT 49.169998 3.105539 34,975 231 428 -64
2019-04-24 11:28:30 GMT 49.175179 3.115058 35,000 231 424 -64
2019-04-24 11:28:27 GMT 49.182487 3.128429 35,000 231 427 0
2019-04-24 11:28:24 GMT 49.182487 3.128429 35,000 231 427 0
2019-04-24 11:28:21 GMT 49.184921 3.132864 35,000 231 427 0
2019-04-24 11:28:17 GMT 49.189957 3.142090 35,000 231 424 -64
2019-04-24 11:28:12 GMT 49.196365 3.153921 35,000 231 426 0
2019-04-24 11:28:09 GMT 49.199341 3.159485 35,000 231 426 0
2019-04-24 11:28:05 GMT 49.205017 3.169908 35,000 231 425 -64
2019-04-24 11:28:00 GMT 49.211884 3.182655 35,000 231 425 64
2019-04-24 11:27:56 GMT 49.216415 3.190965 35,000 231 424 0
2019-04-24 11:27:52 GMT 49.221909 3.201106 35,000 231 423 -64
2019-04-24 11:27:49 GMT 49.231041 3.217982 34,975 231 424 -64
2019-04-24 11:27:44 GMT 49.231041 3.217982 34,975 231 424 0
2019-04-24 11:27:41 GMT 49.235001 3.225403 35,000 236 426 320
2019-04-24 11:27:37 GMT 49.241280 3.236919 34,975 231 423 -64
2019-04-24 11:27:34 GMT 49.243515 3.241037 35,000 231 424 -64
2019-04-24 11:27:30 GMT 49.248505 3.250263 34,975 231 423 -64
2019-04-24 11:27:22 GMT 49.261623 3.274070 35,000 231 423 320
2019-04-24 11:27:19 GMT 49.261623 3.274070 34,975 233 424 320
2019-04-24 11:27:11 GMT 49.271866 3.293730 35,000 236 426 320
2019-04-24 11:27:08 GMT 49.275406 3.301319 35,000 238 428 320
2019-04-24 11:27:02 GMT 49.285675 3.326181 35,000 245 434 384
2019-04-24 11:26:59 GMT 49.287506 3.331170 35,000 242 431 320
2019-04-24 11:26:56 GMT 49.287506 3.331170 35,000 243 432 320
2019-04-24 11:26:50 GMT 49.293640 3.349844 35,000 246 434 384
2019-04-24 11:26:47 GMT 49.295933 3.357697 35,000 253 440 448
2019-04-24 11:26:43 GMT 49.298912 3.369189 35,000 251 439 384
2019-04-24 11:26:38 GMT 49.302265 3.384223 34,975 255 443 448
2019-04-24 11:26:35 GMT 49.303616 3.391451 34,975 256 444 320
2019-04-24 11:26:30 GMT 49.306229 3.407874 35,000 258 445 0
2019-04-24 11:26:26 GMT 49.307804 3.418627 35,000 258 445 0
2019-04-24 11:26:22 GMT 49.309662 3.431256 35,000 258 445 0
2019-04-24 11:26:19 GMT 49.311172 3.441679 35,000 258 445 0
2019-04-24 11:26:16 GMT 49.312508 3.450574 35,000 258 444 0
2019-04-24 11:26:12 GMT 49.314415 3.463801 35,000 258 444 0
2019-04-24 11:26:06 GMT 49.317303 3.483389 35,000 258 444 0
2019-04-24 11:25:59 GMT 49.320000 3.501820 35,000 258 444 0
2019-04-24 11:25:56 GMT 49.321747 3.513724 35,000 258 443 0
2019-04-24 11:25:50 GMT 49.323944 3.528724 35,000 258 443 0
2019-04-24 11:25:46 GMT 49.326656 3.547355 35,000 258 443 -64
2019-04-24 11:25:42 GMT 49.327560 3.553795 35,000 258 443 -64
2019-04-24 11:25:39 GMT 49.329124 3.564558 35,000 258 443 0
2019-04-24 11:25:36 GMT 49.332275 3.586543 34,975 258 443 128
2019-04-24 11:25:33 GMT 49.332275 3.586543 34,975 258 443 0
2019-04-24 11:25:29 GMT 49.333363 3.594192 34,975 258 443 0
2019-04-24 11:25:26 GMT 49.334480 3.601853 35,000 258 443 -64
2019-04-24 11:25:23 GMT 49.336578 3.616544 34,975 258 443 0
2019-04-24 11:25:20 GMT 49.339367 3.635752 34,975 258 443 64
2019-04-24 11:25:17 GMT 49.339367 3.635752 34,975 258 443 64
2019-04-24 11:25:14 GMT 49.341835 3.652882 34,975 258 443 -64
2019-04-24 11:25:11 GMT 49.341835 3.652882 34,975 258 442 -64
2019-04-24 11:25:08 GMT 49.344589 3.672180 34,975 258 443 -64
2019-04-24 11:25:04 GMT 49.344589 3.672180 34,975 258 442 -64
2019-04-24 11:24:56 GMT 49.348396 3.698706 35,000 258 442 0
2019-04-24 11:24:53 GMT 49.349258 3.704576 35,000 258 442 0
2019-04-24 11:24:50 GMT 49.352646 3.728379 34,975 258 442 0
2019-04-24 11:24:45 GMT 49.352646 3.728379 35,000 258 442 0
2019-04-24 11:24:42 GMT 49.353836 3.736619 35,000 258 442 0
2019-04-24 11:24:38 GMT 49.356491 3.754930 35,000 258 441 0
2019-04-24 11:24:35 GMT 49.357288 3.760721 35,000 258 439 0
2019-04-24 11:24:31 GMT 49.358639 3.770190 35,000 258 441 -64
2019-04-24 11:24:27 GMT 49.360336 3.782043 34,975 258 441 -64
2019-04-24 11:24:24 GMT 49.361946 3.793319 35,000 258 440 0
2019-04-24 11:24:21 GMT 49.363297 3.802787 35,000 258 440 0
2019-04-24 11:24:17 GMT 49.364822 3.813735 35,000 258 440 0
2019-04-24 11:24:13 GMT 49.366608 3.826552 34,975 258 439 -64
2019-04-24 11:24:09 GMT 49.368370 3.839071 35,000 258 440 -64
2019-04-24 11:24:03 GMT 49.370975 3.857285 34,975 258 439 0
2019-04-24 11:24:00 GMT 49.372101 3.865216 35,000 258 439 -64
2019-04-24 11:23:53 GMT 49.375259 3.887681 35,000 258 439 0
2019-04-24 11:23:49 GMT 49.377090 3.900499 35,000 258 439 0
2019-04-24 11:23:43 GMT 49.380566 3.925083 35,000 258 438 0
2019-04-24 11:23:40 GMT 49.380566 3.925083 34,975 258 439 0
2019-04-24 11:23:37 GMT 49.382172 3.936275 34,975 258 439 0
2019-04-24 11:23:34 GMT 49.383453 3.945430 34,975 258 439 -64
2019-04-24 11:23:31 GMT 49.386292 3.965486 35,000 258 439 0
2019-04-24 11:23:28 GMT 49.386292 3.965486 35,000 258 439 0
2019-04-24 11:23:23 GMT 49.388626 3.981910 34,975 258 439 -64
2019-04-24 11:23:19 GMT 49.389828 3.990422 35,000 258 439 -64
2019-04-24 11:23:16 GMT 49.391273 4.000686 35,000 258 439 0
2019-04-24 11:23:12 GMT 49.394440 4.023179 35,000 258 439 0
2019-04-24 11:23:09 GMT 49.394440 4.023179 35,000 258 439 0
2019-04-24 11:23:06 GMT 49.395767 4.032616 35,000 258 439 0
2019-04-24 11:23:01 GMT 49.397461 4.044800 35,000 258 439 0
2019-04-24 11:22:58 GMT 49.398998 4.055690 35,000 258 439 0
2019-04-24 11:22:55 GMT 49.399883 4.062123 35,000 258 439 0
2019-04-24 11:22:52 GMT 49.403610 4.088576 35,000 258 439 -64
2019-04-24 11:22:47 GMT 49.405006 4.098623 35,000 258 439 -64
2019-04-24 11:22:41 GMT 49.406029 4.105923 35,000 258 438 0
2019-04-24 11:22:36 GMT 49.408356 4.122331 35,000 258 438 0
2019-04-24 11:22:33 GMT 49.409473 4.130209 35,000 258 438 0
2019-04-24 11:22:29 GMT 49.411057 4.141423 35,000 258 437 -64
2019-04-24 11:22:25 GMT 49.413059 4.155434 35,000 258 437 -64
2019-04-24 11:22:21 GMT 49.414551 4.166059 35,000 259 436 64
2019-04-24 11:22:17 GMT 49.417065 4.183623 34,975 258 437 -64
2019-04-24 11:22:13 GMT 49.418365 4.193019 35,000 258 437 0
2019-04-24 11:22:09 GMT 49.419662 4.202130 35,000 259 434 -64
2019-04-24 11:22:05 GMT 49.421722 4.216356 35,000 258 437 -64
2019-04-24 11:22:02 GMT 49.422958 4.225159 35,000 258 437 -64
2019-04-24 11:21:57 GMT 49.426792 4.252359 35,000 259 436 -64
2019-04-24 11:21:53 GMT 49.426792 4.252359 35,000 258 436 64
2019-04-24 11:21:49 GMT 49.428177 4.262045 35,000 259 433 64
2019-04-24 11:21:43 GMT 49.430923 4.282066 35,000 259 437 0
2019-04-24 11:21:39 GMT 49.432617 4.294498 35,000 259 436 0
2019-04-24 11:21:34 GMT 49.434521 4.308719 35,000 259 436 64
2019-04-24 11:21:30 GMT 49.436150 4.320819 35,000 259 436 64
2019-04-24 11:21:27 GMT 49.437469 4.330493 34,975 259 436 0
2019-04-24 11:21:24 GMT 49.439220 4.343831 34,975 259 436 0
2019-04-24 11:21:21 GMT 49.441410 4.359865 34,975 259 436 0
2019-04-24 11:21:17 GMT 49.441410 4.359865 35,000 259 434 0
2019-04-24 11:21:13 GMT 49.443272 4.373524 34,975 259 436 -64
2019-04-24 11:21:10 GMT 49.444435 4.381986 35,000 259 434 0
2019-04-24 11:21:07 GMT 49.445786 4.391636 35,000 259 434 -64
2019-04-24 11:21:04 GMT 49.447414 4.403662 35,000 258 435 0
2019-04-24 11:21:01 GMT 49.448254 4.409749 35,000 259 434 0
2019-04-24 11:20:58 GMT 49.449966 4.422069 35,000 259 434 0
2019-04-24 11:20:52 GMT 49.452255 4.438693 35,000 259 434 0
2019-04-24 11:20:49 GMT 49.453236 4.445900 35,000 259 433 64
2019-04-24 11:20:46 GMT 49.456863 4.472401 35,000 259 434 0
2019-04-24 11:20:40 GMT 49.456863 4.472401 35,000 259 434 0
2019-04-24 11:20:35 GMT 49.458866 4.487173 35,000 259 434 -64
2019-04-24 11:20:31 GMT 49.460773 4.501351 35,000 259 434 -64
2019-04-24 11:20:28 GMT 49.461613 4.507364 35,000 259 434 -64
2019-04-24 11:20:24 GMT 49.463242 4.519067 35,000 259 434 0
2019-04-24 11:20:20 GMT 49.465290 4.534087 35,000 259 433 -64
2019-04-24 11:20:17 GMT 49.466125 4.540389 35,000 259 433 -64
2019-04-24 11:20:14 GMT 49.467712 4.552126 34,975 259 434 0
2019-04-24 11:20:10 GMT 49.468964 4.561133 35,000 259 433 0
2019-04-24 11:20:07 GMT 49.470318 4.571352 35,000 259 433 64
2019-04-24 11:20:04 GMT 49.471714 4.581596 34,975 259 433 -64
2019-04-24 11:19:58 GMT 49.475719 4.610695 34,975 259 433 0
2019-04-24 11:19:54 GMT 49.475719 4.610695 35,000 259 434 0
2019-04-24 11:19:51 GMT 49.476974 4.620048 34,975 259 433 0
2019-04-24 11:19:47 GMT 49.478668 4.632617 34,975 259 433 -64
2019-04-24 11:19:40 GMT 49.481861 4.656050 35,000 259 434 0
2019-04-24 11:19:36 GMT 49.482834 4.663263 35,000 259 433 -64
2019-04-24 11:19:33 GMT 49.484516 4.675573 35,000 259 433 0
2019-04-24 11:19:30 GMT 49.485352 4.681910 35,000 259 433 0
2019-04-24 11:19:27 GMT 49.487030 4.694280 35,000 259 433 0
2019-04-24 11:19:24 GMT 49.487961 4.701498 35,000 259 434 -128
2019-04-24 11:19:20 GMT 49.489590 4.713803 35,000 259 433 0
2019-04-24 11:19:16 GMT 49.491592 4.728575 34,975 259 434 0
2019-04-24 11:19:13 GMT 49.492104 4.732509 35,000 259 434 -64
2019-04-24 11:19:09 GMT 49.494095 4.746961 35,000 259 434 -64
2019-04-24 11:19:05 GMT 49.496620 4.765320 35,000 259 435 0
2019-04-24 11:18:58 GMT 49.498581 4.779776 35,000 259 434 64
2019-04-24 11:18:54 GMT 49.500156 4.791227 35,000 259 434 64
2019-04-24 11:18:50 GMT 49.501877 4.803917 35,000 259 434 -64
2019-04-24 11:18:47 GMT 49.503090 4.812977 35,000 259 434 0
2019-04-24 11:18:43 GMT 49.504990 4.827118 35,000 259 434 -64
2019-04-24 11:18:37 GMT 49.508698 4.855523 35,000 260 432 0
2019-04-24 11:18:34 GMT 49.508698 4.855523 35,000 259 435 0
2019-04-24 11:18:31 GMT 49.509888 4.864642 35,000 259 435 0
2019-04-24 11:18:26 GMT 49.511375 4.875851 35,000 259 434 0
2019-04-24 11:18:23 GMT 49.512493 4.884611 35,000 259 435 0
2019-04-24 11:18:20 GMT 49.514145 4.897011 35,000 259 434 64
2019-04-24 11:18:15 GMT 49.515659 4.908810 35,000 259 434 0
2019-04-24 11:18:12 GMT 49.517258 4.921224 35,000 259 435 0
2019-04-24 11:18:09 GMT 49.518452 4.930263 35,000 259 434 0
2019-04-24 11:18:06 GMT 49.519291 4.936647 35,000 259 434 0
2019-04-24 11:18:02 GMT 49.521061 4.949935 35,000 259 434 -64
2019-04-24 11:17:56 GMT 49.523392 4.967194 35,000 259 435 0
2019-04-24 11:17:53 GMT 49.524693 4.976807 35,000 259 435 0
2019-04-24 11:17:50 GMT 49.525772 4.984974 35,000 259 434 0
2019-04-24 11:17:47 GMT 49.527950 5.001006 35,000 259 434 64
2019-04-24 11:17:41 GMT 49.529533 5.012438 35,000 259 435 0
2019-04-24 11:17:38 GMT 49.530651 5.020900 35,000 259 434 64
2019-04-24 11:17:34 GMT 49.532272 5.032678 35,000 259 434 0
2019-04-24 11:17:30 GMT 49.533737 5.043520 35,000 259 434 64
2019-04-24 11:17:27 GMT 49.534931 5.052597 35,000 259 434 64
2019-04-24 11:17:24 GMT 49.536163 5.061662 34,975 259 435 0
2019-04-24 11:17:21 GMT 49.539028 5.082810 34,975 259 435 -64
2019-04-24 11:17:18 GMT 49.539028 5.082810 34,975 259 435 -128
2019-04-24 11:17:13 GMT 49.540833 5.096428 35,000 259 435 0
2019-04-24 11:17:08 GMT 49.542984 5.112835 35,000 259 435 0
2019-04-24 11:17:05 GMT 49.544567 5.124899 35,000 259 435 0
2019-04-24 11:17:02 GMT 49.546875 5.142180 34,975 260 434 64
2019-04-24 11:16:59 GMT 49.546875 5.142180 35,000 259 435 0
2019-04-24 11:16:56 GMT 49.547516 5.147022 35,000 259 435 0
2019-04-24 11:16:52 GMT 49.549118 5.159165 35,000 259 435 0
2019-04-24 11:16:49 GMT 49.550762 5.171591 35,000 259 435 0
2019-04-24 11:16:46 GMT 49.551460 5.177010 35,000 259 435 0
2019-04-24 11:16:43 GMT 49.553181 5.190372 35,000 259 435 0
2019-04-24 11:16:40 GMT 49.555508 5.208559 35,000 259 435 -64
2019-04-24 11:16:36 GMT 49.555508 5.208559 35,000 259 435 -64
2019-04-24 11:16:32 GMT 49.557312 5.222481 35,000 260 434 64
2019-04-24 11:16:28 GMT 49.558502 5.231877 35,000 260 434 0
2019-04-24 11:16:25 GMT 49.559601 5.240623 34,975 260 434 0
2019-04-24 11:16:22 GMT 49.560768 5.249758 34,975 260 432 -64
2019-04-24 11:16:19 GMT 49.562027 5.259779 34,975 260 434 0
2019-04-24 11:16:15 GMT 49.563747 5.273957 34,975 260 432 -64
2019-04-24 11:16:12 GMT 49.564632 5.280935 34,975 260 433 -64
2019-04-24 11:16:09 GMT 49.566727 5.298157 34,975 260 432 -64
2019-04-24 11:16:06 GMT 49.567890 5.307584 34,975 260 432 -64
2019-04-24 11:16:03 GMT 49.568939 5.316010 34,975 260 432 -64
2019-04-24 11:16:00 GMT 49.568939 5.316010 35,000 260 432 0
2019-04-24 11:15:56 GMT 49.570499 5.328369 34,975 260 432 0
2019-04-24 11:15:53 GMT 49.571732 5.338633 34,975 260 432 0
2019-04-24 11:15:49 GMT 49.573380 5.352221 35,000 260 432 0
2019-04-24 11:15:46 GMT 49.574177 5.358507 34,975 260 432 0
2019-04-24 11:15:43 GMT 49.575394 5.368773 35,000 260 432 0
2019-04-24 11:15:40 GMT 49.576447 5.377519 35,000 260 432 0
2019-04-24 11:15:37 GMT 49.577774 5.388433 35,000 260 432 0
2019-04-24 11:15:32 GMT 49.579205 5.400151 35,000 260 432 0
2019-04-24 11:15:28 GMT 49.580833 5.413439 35,000 260 432 0
2019-04-24 11:15:24 GMT 49.583679 5.436642 34,975 260 431 -64
2019-04-24 11:15:20 GMT 49.583679 5.436642 35,000 258 425 896
2019-04-24 11:15:17 GMT 49.584839 5.445656 35,000 258 428 -128
2019-04-24 11:15:14 GMT 49.586185 5.456197 34,975 258 426 0
2019-04-24 11:15:10 GMT 49.589127 5.477407 35,000 258 429 -64
2019-04-24 11:15:07 GMT 49.589127 5.477407 34,750 258 425 896
2019-04-24 11:15:02 GMT 49.593727 5.509792 34,525 258 426 64
2019-04-24 11:14:57 GMT 49.595310 5.521001 34,300 259 444 1280
2019-04-24 11:14:52 GMT 49.595310 5.521001 35,000 258 425 320
2019-04-24 11:14:49 GMT 49.596588 5.529882 34,975 259 429 832
2019-04-24 11:14:45 GMT 49.598282 5.541735 34,950 258 425 896
2019-04-24 11:14:40 GMT 49.602993 5.575042 34,825 258 425 896
2019-04-24 11:14:34 GMT 49.602993 5.575042 34,775 258 425 896
2019-04-24 11:14:30 GMT 49.604435 5.585434 34,625 259 430 832
2019-04-24 11:14:27 GMT 49.606201 5.598185 34,625 258 426 768
2019-04-24 11:14:23 GMT 49.607391 5.606714 34,525 259 428 832
2019-04-24 11:14:20 GMT 49.610348 5.628118 34,550 259 428 832
2019-04-24 11:14:16 GMT 49.610348 5.628118 34,275 259 432 768
2019-04-24 11:14:11 GMT 49.612488 5.643558 34,175 259 429 832
2019-04-24 11:14:08 GMT 49.613560 5.651278 34,400 259 429 832
2019-04-24 11:14:04 GMT 49.615562 5.665902 34,325 258 444 1280
2019-04-24 11:14:01 GMT 49.616318 5.671547 34,250 259 433 768
2019-04-24 11:13:58 GMT 49.618057 5.684124 34,250 258 435 896
2019-04-24 11:13:54 GMT 49.619286 5.693145 34,075 259 442 1408
2019-04-24 11:13:50 GMT 49.620960 5.705245 34,150 259 436 896
2019-04-24 11:13:47 GMT 49.622177 5.714336 33,975 259 437 960
2019-04-24 11:13:44 GMT 49.625153 5.736020 33,875 259 444 1280
2019-04-24 11:13:40 GMT 49.625153 5.736020 33,975 258 444 1280
2019-04-24 11:13:37 GMT 49.626408 5.745182 33,925 259 442 1344
2019-04-24 11:13:34 GMT 49.627480 5.752902 33,400 259 445 1344
2019-04-24 11:13:30 GMT 49.629776 5.769557 33,775 259 443 1344
2019-04-24 11:13:26 GMT 49.631378 5.781266 33,075 259 448 896
2019-04-24 11:13:22 GMT 49.633163 5.794276 33,500 259 445 1344
2019-04-24 11:13:16 GMT 49.635635 5.812274 33,425 259 446 1216
2019-04-24 11:13:12 GMT 49.637020 5.822160 33,300 259 447 1152
2019-04-24 11:13:08 GMT 49.638748 5.834969 33,025 259 443 832
2019-04-24 11:13:05 GMT 49.640076 5.844582 33,225 259 447 1152
2019-04-24 11:13:02 GMT 49.641907 5.857954 33,175 259 448 896
2019-04-24 11:12:56 GMT 49.644470 5.876674 33,025 259 443 832
2019-04-24 11:12:53 GMT 49.645340 5.882962 33,000 259 448 896
2019-04-24 11:12:50 GMT 49.647903 5.901682 32,675 259 444 832
2019-04-24 11:12:47 GMT 49.647903 5.901682 32,625 259 448 896
2019-04-24 11:12:44 GMT 49.649139 5.910717 32,875 259 448 960
2019-04-24 11:12:40 GMT 49.651218 5.926011 32,800 259 447 896
2019-04-24 11:12:36 GMT 49.652290 5.933805 32,700 259 446 896
2019-04-24 11:12:33 GMT 49.653763 5.944399 32,700 259 447 832
2019-04-24 11:12:29 GMT 49.655365 5.956180 32,575 259 446 896
2019-04-24 11:12:26 GMT 49.656853 5.967061 32,600 259 446 896
2019-04-24 11:12:22 GMT 49.658203 5.976711 32,550 259 446 896
2019-04-24 11:12:19 GMT 49.659508 5.986361 32,475 258 445 896
2019-04-24 11:12:16 GMT 49.661324 5.999426 32,425 258 445 896
2019-04-24 11:12:13 GMT 49.662533 6.008408 32,375 258 445 896
2019-04-24 11:12:09 GMT 49.665619 6.030771 32,300 259 444 832
2019-04-24 11:12:06 GMT 49.665619 6.030771 32,250 259 445 896
2019-04-24 11:12:02 GMT 49.668091 6.048696 32,075 259 443 896
2019-04-24 11:11:59 GMT 49.668091 6.048696 32,050 259 444 896
2019-04-24 11:11:56 GMT 49.669514 6.059257 32,100 259 443 896
2019-04-24 11:11:53 GMT 49.670609 6.067272 32,050 259 443 960
2019-04-24 11:11:50 GMT 49.672348 6.079632 31,975 259 443 896
2019-04-24 11:11:47 GMT 49.673630 6.089245 31,975 259 443 896
2019-04-24 11:11:44 GMT 49.674500 6.095388 31,925 259 442 896
2019-04-24 11:11:41 GMT 49.675987 6.106246 31,750 259 443 768
2019-04-24 11:11:38 GMT 49.677017 6.113964 31,850 259 443 768
2019-04-24 11:11:34 GMT 49.679012 6.129035 31,825 259 442 960
2019-04-24 11:11:31 GMT 49.680359 6.138683 31,650 259 442 896
2019-04-24 11:11:28 GMT 49.681293 6.145737 31,675 259 442 896
2019-04-24 11:11:25 GMT 49.682373 6.153789 31,550 259 442 832
2019-04-24 11:11:20 GMT 49.684364 6.168526 31,550 259 442 832
2019-04-24 11:11:17 GMT 49.685623 6.177786 31,500 259 441 832
2019-04-24 11:11:14 GMT 49.687389 6.191019 31,475 259 441 1024
2019-04-24 11:11:11 GMT 49.688599 6.200264 31,425 259 440 1088
2019-04-24 11:11:06 GMT 49.690659 6.215298 31,325 259 440 960
2019-04-24 11:11:03 GMT 49.691666 6.222960 31,275 259 439 1024
2019-04-24 11:11:00 GMT 49.692654 6.229990 31,225 259 440 960
2019-04-24 11:10:57 GMT 49.695465 6.250859 31,150 259 439 1024
2019-04-24 11:10:51 GMT 49.697937 6.269218 31,000 259 439 960
2019-04-24 11:10:48 GMT 49.697937 6.269218 30,950 259 438 896
2019-04-24 11:10:45 GMT 49.699169 6.278390 30,875 259 438 896
2019-04-24 11:10:42 GMT 49.700409 6.287577 30,900 259 438 896
2019-04-24 11:10:37 GMT 49.702240 6.301021 30,875 259 438 896
2019-04-24 11:10:34 GMT 49.703522 6.310489 30,825 259 438 832
2019-04-24 11:10:31 GMT 49.704895 6.320897 30,775 259 435 896
2019-04-24 11:10:28 GMT 49.705917 6.328496 30,250 259 436 960
2019-04-24 11:10:25 GMT 49.707504 6.340412 30,625 259 436 896
2019-04-24 11:10:22 GMT 49.709084 6.352325 30,600 259 435 1024
2019-04-24 11:10:19 GMT 49.711132 6.367839 30,250 259 435 1024
2019-04-24 11:10:12 GMT 49.712856 6.380607 30,450 259 435 1088
2019-04-24 11:10:08 GMT 49.716202 6.405824 30,350 259 434 1216
2019-04-24 11:10:04 GMT 49.716202 6.405824 30,300 259 434 1152
2019-04-24 11:10:01 GMT 49.717026 6.411896 30,250 259 434 1216
2019-04-24 11:09:58 GMT 49.718536 6.423142 30,200 259 434 1280
2019-04-24 11:09:53 GMT 49.720367 6.437121 30,100 259 434 1216
2019-04-24 11:09:50 GMT 49.721375 6.444743 30,000 259 434 1216
2019-04-24 11:09:47 GMT 49.722794 6.455335 29,400 259 434 1216
2019-04-24 11:09:44 GMT 49.723938 6.464153 29,850 259 434 1280
2019-04-24 11:09:40 GMT 49.725586 6.476296 29,875 259 435 1344
2019-04-24 11:09:36 GMT 49.727100 6.487872 29,700 259 432 1024
2019-04-24 11:09:32 GMT 49.729111 6.503039 29,650 259 435 1344
2019-04-24 11:09:29 GMT 49.729935 6.509110 29,600 259 435 1344
2019-04-24 11:09:26 GMT 49.731152 6.518530 29,500 259 435 1408
2019-04-24 11:09:22 GMT 49.732548 6.529219 29,425 259 435 1408
2019-04-24 11:09:18 GMT 49.734688 6.545328 29,300 259 436 1536
2019-04-24 11:09:15 GMT 49.735428 6.551104 29,250 259 436 1536
2019-04-24 11:09:11 GMT 49.737030 6.563319 29,125 259 436 1536
2019-04-24 11:09:08 GMT 49.738083 6.571559 29,100 259 436 1600
2019-04-24 11:09:05 GMT 49.739437 6.581924 28,975 259 437 1472
2019-04-24 11:09:00 GMT 49.742798 6.607554 28,825 259 437 1088
2019-04-24 11:08:54 GMT 49.743576 6.613697 28,750 259 437 1152
2019-04-24 11:08:51 GMT 49.745178 6.625912 28,675 259 437 1024
2019-04-24 11:08:48 GMT 49.746281 6.634183 28,625 259 436 1024
2019-04-24 11:08:45 GMT 49.747742 6.645500 28,600 259 431 832
2019-04-24 11:08:40 GMT 49.749306 6.657344 28,475 259 434 960
2019-04-24 11:08:37 GMT 49.750748 6.668330 28,425 259 435 1024
2019-04-24 11:08:32 GMT 49.753006 6.685325 28,350 259 433 960
2019-04-24 11:08:28 GMT 49.754700 6.698408 28,275 259 433 960
2019-04-24 11:08:25 GMT 49.755524 6.704479 28,250 259 433 1024
2019-04-24 11:08:21 GMT 49.757217 6.717200 28,025 259 432 960
2019-04-24 11:08:18 GMT 49.758408 6.725946 28,025 259 432 960
2019-04-24 11:08:14 GMT 49.760292 6.740112 28,050 259 432 832
2019-04-24 11:08:08 GMT 49.762295 6.754884 27,950 259 430 896
2019-04-24 11:08:05 GMT 49.763969 6.767504 27,800 259 429 1152
2019-04-24 11:07:59 GMT 49.767277 6.791778 27,775 260 428 1024
2019-04-24 11:07:56 GMT 49.767277 6.791778 27,750 260 428 1024
2019-04-24 11:07:53 GMT 49.768478 6.801404 27,700 262 428 1216
2019-04-24 11:07:50 GMT 49.769741 6.813157 27,650 263 428 1344
2019-04-24 11:07:46 GMT 49.770626 6.823178 27,575 264 429 1344
2019-04-24 11:07:41 GMT 49.771591 6.836243 27,450 268 426 1408
2019-04-24 11:07:37 GMT 49.772305 6.850347 27,125 268 430 1024
2019-04-24 11:07:34 GMT 49.772507 6.856770 27,125 268 430 1024
2019-04-24 11:07:31 GMT 49.773102 6.878526 27,075 268 426 1344
2019-04-24 11:07:24 GMT 49.773746 6.902086 27,125 268 427 896
2019-04-24 11:07:21 GMT 49.773746 6.902086 27,075 268 426 1344
2019-04-24 11:07:18 GMT 49.774155 6.917267 27,075 268 426 1088
2019-04-24 11:07:15 GMT 49.774155 6.917267 26,675 268 407 1600
2019-04-24 11:07:11 GMT 49.774475 6.930060 26,800 268 425 1024
2019-04-24 11:07:05 GMT 49.775002 6.950040 26,750 268 422 1408
2019-04-24 11:07:00 GMT 49.775345 6.962513 26,575 268 422 1344
2019-04-24 11:06:56 GMT 49.775620 6.972488 26,700 268 422 1344
2019-04-24 11:06:53 GMT 49.775841 6.981515 26,575 268 420 768
2019-04-24 11:06:50 GMT 49.776169 6.994460 26,375 268 421 896
2019-04-24 11:06:46 GMT 49.776398 7.003784 26,475 268 421 896
2019-04-24 11:06:43 GMT 49.776627 7.013108 26,200 268 417 1088
2019-04-24 11:06:40 GMT 49.776913 7.024198 26,325 268 418 1088
2019-04-24 11:06:37 GMT 49.777084 7.031322 25,250 268 417 1088
2019-04-24 11:06:33 GMT 49.777405 7.044477 26,250 268 416 896
2019-04-24 11:06:30 GMT 49.777611 7.052480 26,200 268 412 768
2019-04-24 11:06:26 GMT 49.777935 7.064951 26,200 268 413 384
2019-04-24 11:06:23 GMT 49.778122 7.072003 26,150 268 411 1728
2019-04-24 11:06:20 GMT 49.778309 7.080243 25,775 269 410 1152
2019-04-24 11:06:17 GMT 49.778641 7.093409 26,025 268 410 1152
2019-04-24 11:06:14 GMT 49.778866 7.102216 25,900 268 410 1280
2019-04-24 11:06:11 GMT 49.779053 7.109817 25,900 268 410 1216
2019-04-24 11:06:08 GMT 49.779419 7.124706 25,825 268 406 1536
2019-04-24 11:06:01 GMT 49.779739 7.137861 25,650 268 408 1344
2019-04-24 11:05:58 GMT 49.779968 7.147763 25,600 268 408 1408
2019-04-24 11:05:55 GMT 49.780357 7.163754 25,425 268 406 1536
2019-04-24 11:05:52 GMT 49.780590 7.172216 24,625 268 407 1600
2019-04-24 11:05:49 GMT 49.780590 7.172216 25,400 268 407 1600
2019-04-24 11:05:45 GMT 49.781067 7.192503 25,175 268 406 1536
2019-04-24 11:05:42 GMT 49.781288 7.201241 25,125 268 406 1472
2019-04-24 11:05:39 GMT 49.781288 7.201241 25,075 268 406 1600
2019-04-24 11:05:36 GMT 49.781525 7.209922 24,975 268 406 1728
2019-04-24 11:05:33 GMT 49.782078 7.233087 24,850 268 405 1856
2019-04-24 11:05:28 GMT 49.782078 7.233087 22,325 268 404 1920
2019-04-24 11:05:25 GMT 49.782303 7.243460 24,675 268 406 1728
2019-04-24 11:05:22 GMT 49.782822 7.263151 23,400 268 404 1920
2019-04-24 11:05:18 GMT 49.782822 7.263151 24,525 268 405 1664
2019-04-24 11:05:15 GMT 49.782990 7.271215 24,425 268 405 1664
2019-04-24 11:05:12 GMT 49.783218 7.281044 24,225 268 404 1856
2019-04-24 11:05:07 GMT 49.783615 7.297223 24,175 268 404 1856
2019-04-24 11:05:04 GMT 49.783848 7.305537 24,075 268 404 1920
2019-04-24 11:05:01 GMT 49.784225 7.321737 23,975 268 404 1920
2019-04-24 11:04:58 GMT 49.784225 7.321737 23,900 268 404 1920
2019-04-24 11:04:55 GMT 49.784363 7.328893 23,850 268 404 1856
2019-04-24 11:04:52 GMT 49.784592 7.337308 23,750 268 404 1920
2019-04-24 11:04:49 GMT 49.784824 7.347627 23,325 269 404 1856
2019-04-24 11:04:45 GMT 49.785057 7.358910 23,525 269 404 1856
2019-04-24 11:04:42 GMT 49.785244 7.366407 23,100 269 404 1856
2019-04-24 11:04:38 GMT 49.785507 7.377898 22,950 269 404 1984
2019-04-24 11:04:34 GMT 49.785755 7.389122 23,100 269 404 1984
2019-04-24 11:04:31 GMT 49.785942 7.396917 22,950 269 404 1984
2019-04-24 11:04:27 GMT 49.786266 7.412728 22,975 269 403 1920
2019-04-24 11:04:23 GMT 49.786503 7.422230 22,775 269 404 2112
2019-04-24 11:04:20 GMT 49.786686 7.430618 22,725 269 404 2112
2019-04-24 11:04:14 GMT 49.787247 7.455091 22,125 269 402 1920
2019-04-24 11:04:08 GMT 49.787384 7.462536 22,300 269 403 1920
2019-04-24 11:04:04 GMT 49.787704 7.477497 22,150 269 402 1984
2019-04-24 11:04:01 GMT 49.787899 7.485550 22,025 269 402 1920
2019-04-24 11:03:55 GMT 49.788254 7.502722 21,875 269 402 1856
2019-04-24 11:03:52 GMT 49.788437 7.510167 21,750 269 401 1856
2019-04-24 11:03:49 GMT 49.788643 7.520216 21,700 269 401 1920
2019-04-24 11:03:46 GMT 49.788803 7.527080 21,625 269 400 1920
2019-04-24 11:03:41 GMT 49.789078 7.542476 21,475 269 400 1920
2019-04-24 11:03:38 GMT 49.789261 7.550209 20,075 269 396 1856
2019-04-24 11:03:34 GMT 49.789665 7.570694 20,850 269 399 1856
2019-04-24 11:03:31 GMT 49.789852 7.580938 21,075 269 398 1984
2019-04-24 11:03:27 GMT 49.789852 7.580938 20,925 269 394 1920
2019-04-24 11:03:24 GMT 49.790039 7.589697 20,850 269 397 1984
2019-04-24 11:03:21 GMT 49.790180 7.597417 20,800 269 397 1920
2019-04-24 11:03:18 GMT 49.790405 7.608105 20,600 269 396 1856
2019-04-24 11:03:15 GMT 49.790543 7.615477 19,850 269 394 1920
2019-04-24 11:03:11 GMT 49.790771 7.626536 20,500 269 395 1920
2019-04-24 11:03:08 GMT 49.791111 7.645074 20,075 269 389 1728
2019-04-24 11:03:04 GMT 49.791111 7.645074 20,225 269 393 1792
2019-04-24 11:03:00 GMT 49.791531 7.665859 20,075 269 392 1728
2019-04-24 11:02:57 GMT 49.791531 7.665859 20,000 269 390 1856
2019-04-24 11:02:54 GMT 49.791714 7.675583 19,925 269 390 1856
2019-04-24 11:02:51 GMT 49.791824 7.682334 19,900 269 390 1792
2019-04-24 11:02:48 GMT 49.791992 7.690949 19,825 269 389 1728
2019-04-24 11:02:45 GMT 49.792236 7.701777 19,675 269 388 1664
2019-04-24 11:02:42 GMT 49.792328 7.707343 19,675 269 388 1600
2019-04-24 11:02:39 GMT 49.792511 7.716739 19,525 269 386 1536
2019-04-24 11:02:36 GMT 49.792694 7.725541 19,475 269 382 1472
2019-04-24 11:02:31 GMT 49.792923 7.735965 19,375 269 383 1472
2019-04-24 11:02:27 GMT 49.793251 7.749370 19,250 269 381 1536
2019-04-24 11:02:24 GMT 49.793381 7.756420 19,025 269 379 1728
2019-04-24 11:02:21 GMT 49.793655 7.767840 19,075 269 379 1792
2019-04-24 11:02:18 GMT 49.793976 7.783524 18,975 269 377 1728
2019-04-24 11:02:15 GMT 49.794182 7.792350 18,850 269 377 1728
2019-04-24 11:02:08 GMT 49.794388 7.803329 18,675 269 374 2112
2019-04-24 11:02:05 GMT 49.794556 7.811131 18,525 269 373 2496
2019-04-24 11:02:02 GMT 49.794662 7.818290 18,475 269 373 2240
2019-04-24 11:01:59 GMT 49.794846 7.826313 18,300 269 373 2240
2019-04-24 11:01:54 GMT 49.795067 7.838300 18,200 269 373 2432
2019-04-24 11:01:49 GMT 49.795349 7.853418 17,975 269 372 2432
2019-04-24 11:01:46 GMT 49.795441 7.857452 16,775 269 373 2816
2019-04-24 11:01:43 GMT 49.795578 7.867027 16,475 269 372 2368
2019-04-24 11:01:40 GMT 49.795715 7.873945 17,450 269 372 2496
2019-04-24 11:01:36 GMT 49.795990 7.887750 17,450 269 372 2560
2019-04-24 11:01:33 GMT 49.796089 7.893825 17,325 269 372 2624
2019-04-24 11:01:30 GMT 49.796219 7.900471 17,250 269 372 2816
2019-04-24 11:01:27 GMT 49.796310 7.907337 17,125 269 372 2880
2019-04-24 11:01:23 GMT 49.796509 7.918767 16,525 269 373 2816
2019-04-24 11:01:20 GMT 49.796696 7.929976 16,450 269 373 2816
2019-04-24 11:01:16 GMT 49.796814 7.936610 16,625 269 373 2752
2019-04-24 11:01:13 GMT 49.796974 7.945713 16,400 269 374 2688
2019-04-24 11:01:10 GMT 49.797180 7.957643 16,250 269 374 2688
2019-04-24 11:01:07 GMT 49.797272 7.963787 15,900 269 367 2432
2019-04-24 11:01:04 GMT 49.797501 7.978243 15,900 269 374 2944
2019-04-24 11:01:01 GMT 49.797501 7.978243 15,600 269 374 2944
2019-04-24 11:00:54 GMT 49.797867 7.998986 15,525 269 374 2496
2019-04-24 11:00:48 GMT 49.798096 8.012358 15,325 269 373 2240
2019-04-24 11:00:45 GMT 49.798187 8.019803 15,250 269 372 2560
2019-04-24 11:00:42 GMT 49.798416 8.032018 15,050 269 371 2688
2019-04-24 11:00:38 GMT 49.798698 8.049787 14,175 269 367 2432
2019-04-24 11:00:34 GMT 49.798698 8.049787 14,700 269 368 2432
2019-04-24 11:00:31 GMT 49.798828 8.058544 14,650 269 370 2432
2019-04-24 11:00:28 GMT 49.798965 8.066495 14,475 269 369 2368
2019-04-24 11:00:25 GMT 49.799057 8.072783 13,750 269 366 2880
2019-04-24 11:00:21 GMT 49.799240 8.083335 14,275 269 366 2624
2019-04-24 11:00:18 GMT 49.799469 8.095623 13,675 269 365 2496
2019-04-24 11:00:14 GMT 49.799515 8.100899 13,975 269 366 2752
2019-04-24 11:00:11 GMT 49.799675 8.111102 13,800 269 366 2880
2019-04-24 11:00:07 GMT 49.799862 8.123350 13,350 269 366 2688
2019-04-24 11:00:02 GMT 49.800064 8.134870 13,400 269 365 2496
2019-04-24 10:59:58 GMT 49.800327 8.152004 13,050 269 363 2752
2019-04-24 10:59:52 GMT 49.800514 8.161654 12,875 269 363 2752
2019-04-24 10:59:48 GMT 49.800606 8.169968 12,800 269 363 2752
2019-04-24 10:59:44 GMT 49.800797 8.182646 12,425 269 362 2752
2019-04-24 10:59:39 GMT 49.801025 8.195584 12,350 269 361 2688
2019-04-24 10:59:35 GMT 49.801163 8.205631 12,175 269 361 2240
2019-04-24 10:59:31 GMT 49.801304 8.214136 12,075 269 359 2112
2019-04-24 10:59:28 GMT 49.801483 8.223122 11,950 269 355 2816
2019-04-24 10:59:25 GMT 49.801620 8.229699 11,775 269 356 2624
2019-04-24 10:59:22 GMT 49.801910 8.246724 11,650 269 355 2816
2019-04-24 10:59:19 GMT 49.801910 8.246724 11,475 269 354 2688
2019-04-24 10:59:16 GMT 49.802052 8.252811 11,250 269 353 2112
2019-04-24 10:59:13 GMT 49.802280 8.265950 11,250 269 352 1536
2019-04-24 10:59:07 GMT 49.802513 8.276268 11,150 269 349 1088
2019-04-24 10:59:04 GMT 49.802841 8.290372 11,100 268 341 960
2019-04-24 10:58:58 GMT 49.802994 8.297930 10,950 268 333 832
2019-04-24 10:58:55 GMT 49.803177 8.304435 10,950 269 326 1216
2019-04-24 10:58:52 GMT 49.803352 8.312345 10,875 268 331 960
2019-04-24 10:58:48 GMT 49.803589 8.323155 10,675 269 324 1216
2019-04-24 10:58:44 GMT 49.803726 8.328973 10,675 269 324 1216
2019-04-24 10:58:41 GMT 49.803818 8.336099 10,725 269 320 960
2019-04-24 10:58:38 GMT 49.803959 8.347234 10,650 271 310 960
2019-04-24 10:58:35 GMT 49.803955 8.350838 10,650 271 310 960
2019-04-24 10:58:31 GMT 49.803959 8.358591 10,600 271 308 1280
2019-04-24 10:58:27 GMT 49.803864 8.368691 10,450 271 302 1920
2019-04-24 10:58:24 GMT 49.803818 8.376714 10,400 271 302 1984
2019-04-24 10:58:21 GMT 49.803818 8.382494 10,300 270 300 2240
2019-04-24 10:58:18 GMT 49.803818 8.386977 10,150 270 298 2560
2019-04-24 10:58:13 GMT 49.804596 8.407721 9,825 264 295 3008
2019-04-24 10:58:09 GMT 49.804596 8.407721 9,650 264 295 2624
2019-04-24 10:58:06 GMT 49.805077 8.413820 9,550 264 295 2624
2019-04-24 10:58:02 GMT 49.805866 8.424955 9,325 264 294 2304
2019-04-24 10:57:59 GMT 49.806152 8.428899 9,275 264 293 2304
2019-04-24 10:57:55 GMT 49.806610 8.435765 9,150 263 290 2432
2019-04-24 10:57:52 GMT 49.807030 8.441434 9,050 262 289 2496
2019-04-24 10:57:49 GMT 49.807800 8.448775 8,900 256 285 3008
2019-04-24 10:57:45 GMT 49.810455 8.464821 8,525 246 283 3136
2019-04-24 10:57:41 GMT 49.810455 8.464821 8,500 247 283 3136
2019-04-24 10:57:38 GMT 49.812103 8.470604 8,325 241 282 2944
2019-04-24 10:57:33 GMT 49.815132 8.478847 8,000 238 281 2624
2019-04-24 10:57:28 GMT 49.818810 8.487978 7,900 236 279 2432
2019-04-24 10:57:22 GMT 49.823044 8.497202 7,675 229 275 2368
2019-04-24 10:57:18 GMT 49.827232 8.504160 7,500 219 271 2496
2019-04-24 10:57:15 GMT 49.829609 8.507352 7,400 213 269 2816
2019-04-24 10:57:10 GMT 49.835239 8.512697 7,300 209 269 2944
2019-04-24 10:57:07 GMT 49.839111 8.515272 5,425 196 269 2240
2019-04-24 10:57:01 GMT 49.844696 8.518307 6,775 199 266 3200
2019-04-24 10:56:57 GMT 49.849903 8.521159 6,200 195 268 2048
2019-04-24 10:56:54 GMT 49.852932 8.522793 6,375 198 269 3136
2019-04-24 10:56:50 GMT 49.859215 8.525984 6,100 195 268 2048
2019-04-24 10:56:47 GMT 49.861729 8.527024 5,950 193 265 1856
2019-04-24 10:56:44 GMT 49.865173 8.528360 5,950 193 264 1920
2019-04-24 10:56:39 GMT 49.870529 8.530216 5,850 192 262 2048
2019-04-24 10:56:36 GMT 49.873856 8.531245 5,700 191 258 1984
2019-04-24 10:56:31 GMT 49.880676 8.533037 5,500 186 255 2112
2019-04-24 10:56:27 GMT 49.885796 8.533779 5,350 182 253 1984
2019-04-24 10:56:21 GMT 49.893539 8.533919 5,125 178 247 3200
2019-04-24 10:56:18 GMT 49.896515 8.533775 4,975 178 247 3200
2019-04-24 10:56:14 GMT 49.900635 8.533630 4,800 178 247 2752
2019-04-24 10:56:10 GMT 49.910980 8.533259 4,450 178 244 2560
2019-04-24 10:56:05 GMT 49.910980 8.533259 4,425 178 243 2688
2019-04-24 10:56:02 GMT 49.913776 8.533111 4,325 178 242 3008
2019-04-24 10:55:59 GMT 49.916931 8.532980 4,175 178 242 2944
2019-04-24 10:55:56 GMT 49.920155 8.532888 4,025 177 242 3008
2019-04-24 10:55:53 GMT 49.923645 8.532665 3,850 177 241 3136
2019-04-24 10:55:49 GMT 49.927975 8.532368 3,700 177 242 2944
2019-04-24 10:55:44 GMT 49.934235 8.531896 3,425 176 240 2752
2019-04-24 10:55:41 GMT 49.937439 8.531607 3,300 176 238 2944
2019-04-24 10:55:38 GMT 49.939865 8.531390 2,950 176 237 3392
2019-04-24 10:55:34 GMT 49.944267 8.530958 2,850 176 237 4096
2019-04-24 10:55:31 GMT 49.948643 8.530513 2,725 176 238 3904
2019-04-24 10:55:23 GMT 49.957352 8.529727 2,225 177 238 2688
2019-04-24 10:55:18 GMT 49.961746 8.529366 1,925 177 229 896
2019-04-24 10:55:12 GMT 49.968842 8.528788 1,900 176 223 832
2019-04-24 10:55:07 GMT 49.973408 8.528360 1,850 176 219 768
2019-04-24 10:55:02 GMT 49.979874 8.527848 1,750 176 205 1024
2019-04-24 10:54:57 GMT 49.983185 8.527543 1,700 177 200 1152
2019-04-24 10:54:51 GMT 49.990028 8.527024 1,475 177 194 3008
2019-04-24 10:49:59 GMT 50.036625 8.536525 0 250 19
2019-04-24 10:49:47 GMT 50.036930 8.537769 0 250 19

Making use of Plane Finder data

You are free to use the raw flight data, aircraft information and images provided in this report for your own purposes provided the data is correctly attributed to Plane Finder. We ask that you please credit Plane Finder and link to planefinder.net in close proximity to the content.

Optionally one of the following logos (no smaller then 150x24px) can be used and must link to planefinder.net

Embedding the Plane Finder map

You are welcome to embed the Plane Finder playback map on your website to offer visitors a more interactive experience. We suggest using the following HTML code:

<iframe src="//planefinder.net/data/report/X32258-D-ATUO-7700-squawk-2019-04-24/map" width="800" height="600" seamless="seamless"></iframe>

Where our data comes from

Plane Finder has a global network of data feeds and antenna radars that receive data broadcast directly from aircraft. The primary technologies used are ADS-B and MLAT. We also show feeds from the FAA and a FLARM glider feed.

Click here to find out more about the Plane Finder network.

How we collect our data